createdAt,value
2023-03-10T00:00:20.856Z,84.60
2023-03-10T00:02:50.074Z,84.60
2023-03-10T00:05:18.415Z,84.60
2023-03-10T00:07:45.345Z,84.60
2023-03-10T00:10:12.985Z,84.70
2023-03-10T00:12:39.647Z,84.70
2023-03-10T00:15:07.210Z,84.70
2023-03-10T00:17:34.993Z,84.70
2023-03-10T00:20:02.420Z,84.70
2023-03-10T00:22:29.747Z,84.80
2023-03-10T00:24:56.441Z,84.80
2023-03-10T00:27:23.088Z,84.70
2023-03-10T00:29:51.808Z,85.60
2023-03-10T00:32:19.039Z,84.80
2023-03-10T00:34:45.753Z,84.80
2023-03-10T00:37:12.420Z,85.60
2023-03-10T00:39:39.068Z,84.70
2023-03-10T00:42:06.125Z,84.70
2023-03-10T00:44:33.678Z,84.70
2023-03-10T00:47:00.946Z,85.40
2023-03-10T00:49:27.603Z,85.10
2023-03-10T00:51:54.332Z,85.20
2023-03-10T00:54:21.060Z,85.20
2023-03-10T00:56:47.832Z,85.40
2023-03-10T00:59:14.532Z,85.20
2023-03-10T01:01:41.902Z,84.80
2023-03-10T01:04:14.306Z,84.70
2023-03-10T01:06:41.376Z,85.60
2023-03-10T01:09:08.044Z,84.80
2023-03-10T01:11:36.164Z,84.70
2023-03-10T01:14:05.475Z,84.60
2023-03-10T01:16:32.690Z,84.70
2023-03-10T01:18:59.481Z,84.50
2023-03-10T01:21:28.089Z,84.60
2023-03-10T01:23:54.805Z,84.70
2023-03-10T01:26:21.589Z,84.80
2023-03-10T01:28:51.282Z,85.20
2023-03-10T01:31:18.371Z,85.10
2023-03-10T01:33:45.618Z,84.70
2023-03-10T01:36:15.915Z,84.60
2023-03-10T01:38:42.906Z,84.20
2023-03-10T01:41:09.586Z,84.20
2023-03-10T01:43:40.799Z,84.30
2023-03-10T01:46:39.295Z,84.30
2023-03-10T01:49:22.631Z,84.20
2023-03-10T01:51:52.009Z,84.00
2023-03-10T01:54:21.402Z,84.20
2023-03-10T01:56:48.311Z,84.20
2023-03-10T01:59:15.137Z,84.20
2023-03-10T02:01:41.935Z,84.10
2023-03-10T02:04:16.646Z,84.30
2023-03-10T02:06:43.437Z,84.00
2023-03-10T02:09:10.442Z,83.90
2023-03-10T02:11:39.017Z,84.50
2023-03-10T02:14:06.393Z,84.20
2023-03-10T02:16:33.631Z,84.00
2023-03-10T02:19:00.376Z,84.20
2023-03-10T02:21:50.092Z,84.00
2023-03-10T02:24:29.663Z,84.20
2023-03-10T02:27:15.876Z,83.90
2023-03-10T02:29:58.307Z,84.10
2023-03-10T02:32:26.093Z,84.60
2023-03-10T02:34:53.008Z,85.00
2023-03-10T02:37:28.126Z,84.60
2023-03-10T02:39:54.860Z,84.90
2023-03-10T02:42:22.344Z,84.60
2023-03-10T02:44:49.404Z,84.50
2023-03-10T02:47:16.276Z,84.50
2023-03-10T02:49:43.035Z,84.60
2023-03-10T02:52:25.545Z,84.70
2023-03-10T02:54:52.428Z,84.80
2023-03-10T02:57:19.084Z,84.60
2023-03-10T02:59:45.741Z,84.80
2023-03-10T03:02:12.960Z,85.10
2023-03-10T03:04:40.024Z,85.40
2023-03-10T03:07:07.408Z,85.00
2023-03-10T03:09:34.117Z,85.10
2023-03-10T03:12:01.394Z,85.10
2023-03-10T03:14:28.102Z,85.10
2023-03-10T03:16:54.904Z,84.60
2023-03-10T03:19:21.713Z,84.20
2023-03-10T03:21:49.902Z,84.20
2023-03-10T03:24:21.019Z,83.80
2023-03-10T03:26:47.756Z,82.70
2023-03-10T03:29:15.131Z,82.70
2023-03-10T03:31:42.514Z,81.90
2023-03-10T03:34:09.322Z,81.80
2023-03-10T03:36:37.352Z,81.30
2023-03-10T03:39:06.521Z,81.40
2023-03-10T03:41:33.959Z,81.60
2023-03-10T03:44:00.775Z,81.60
2023-03-10T03:46:27.680Z,81.50
2023-03-10T03:48:54.594Z,81.70
2023-03-10T03:51:21.297Z,81.80
2023-03-10T03:53:48.024Z,81.10
2023-03-10T03:56:15.714Z,81.10
2023-03-10T03:58:42.367Z,80.90
2023-03-10T04:01:09.935Z,80.60
2023-03-10T04:03:36.697Z,80.50
2023-03-10T04:06:03.457Z,80.60
2023-03-10T04:08:30.149Z,80.30
2023-03-10T04:10:56.906Z,80.40
2023-03-10T04:13:23.606Z,80.30
2023-03-10T04:15:55.625Z,80.60
2023-03-10T04:18:22.384Z,80.30
2023-03-10T04:20:49.042Z,80.40
2023-03-10T04:23:17.387Z,80.40
2023-03-10T04:25:44.180Z,80.60
2023-03-10T04:28:11.152Z,80.30
2023-03-10T04:30:37.840Z,80.30
2023-03-10T04:33:04.763Z,79.90
2023-03-10T04:35:31.625Z,79.70
2023-03-10T04:37:58.293Z,79.60
2023-03-10T04:40:24.989Z,79.60
2023-03-10T04:42:51.829Z,79.30
2023-03-10T04:45:18.639Z,79.30
2023-03-10T04:47:45.361Z,78.90
2023-03-10T04:50:12.434Z,79.00
2023-03-10T04:52:39.222Z,79.00
2023-03-10T04:55:06.374Z,79.00
2023-03-10T04:57:33.031Z,79.50
2023-03-10T05:00:02.622Z,79.20
2023-03-10T05:02:29.707Z,79.60
2023-03-10T05:04:56.798Z,79.40
2023-03-10T05:07:23.705Z,79.70
2023-03-10T05:09:50.565Z,79.60
2023-03-10T05:12:18.002Z,79.50
2023-03-10T05:14:44.727Z,79.50
2023-03-10T05:17:11.579Z,79.50
2023-03-10T05:19:38.403Z,79.60
2023-03-10T05:22:05.562Z,79.00
2023-03-10T05:24:32.225Z,79.00
2023-03-10T05:26:59.026Z,79.00
2023-03-10T05:29:25.733Z,79.00
2023-03-10T05:31:52.507Z,78.90
2023-03-10T05:34:20.789Z,78.90
2023-03-10T05:36:47.440Z,78.80
2023-03-10T05:39:14.116Z,78.70
2023-03-10T05:41:40.805Z,78.80
2023-03-10T05:44:07.621Z,78.00
2023-03-10T05:46:34.348Z,77.70
2023-03-10T05:49:01.114Z,77.80
2023-03-10T05:51:28.129Z,77.40
2023-03-10T05:53:55.158Z,77.20
2023-03-10T05:56:22.286Z,77.50
2023-03-10T05:58:51.330Z,77.20
2023-03-10T06:01:18.659Z,77.70
2023-03-10T06:03:46.079Z,78.00
2023-03-10T06:06:13.694Z,77.40
2023-03-10T06:08:40.431Z,77.30
2023-03-10T06:11:07.182Z,77.40
2023-03-10T06:13:33.906Z,76.80
2023-03-10T06:16:02.137Z,76.40
2023-03-10T06:18:28.970Z,77.00
2023-03-10T06:20:55.777Z,77.80
2023-03-10T06:23:22.670Z,77.40
2023-03-10T06:25:59.384Z,77.20
2023-03-10T06:28:26.982Z,77.00
2023-03-10T06:30:56.955Z,76.60
2023-03-10T06:33:24.520Z,76.80
2023-03-10T06:35:51.536Z,76.40
2023-03-10T06:38:18.229Z,76.30
2023-03-10T06:40:44.936Z,76.30
2023-03-10T06:43:14.240Z,75.70
2023-03-10T06:45:42.482Z,75.60
2023-03-10T06:48:09.532Z,75.80
2023-03-10T06:50:36.298Z,75.80
2023-03-10T06:53:02.958Z,75.70
2023-03-10T06:55:29.608Z,75.70
2023-03-10T06:57:56.332Z,75.40
2023-03-10T07:00:23.093Z,75.90
2023-03-10T07:02:50.159Z,76.40
2023-03-10T07:05:16.893Z,75.20
2023-03-10T07:07:43.662Z,75.20
2023-03-10T07:10:11.151Z,74.90
2023-03-10T07:12:38.258Z,74.60
2023-03-10T07:15:05.344Z,74.20
2023-03-10T07:17:32.075Z,74.10
2023-03-10T07:19:58.785Z,74.20
2023-03-10T07:22:25.616Z,73.80
2023-03-10T07:24:55.560Z,74.30
2023-03-10T07:27:22.889Z,73.70
2023-03-10T07:29:49.984Z,73.50
2023-03-10T07:32:17.224Z,73.50
2023-03-10T07:34:44.421Z,73.20
2023-03-10T07:37:11.129Z,73.10
2023-03-10T07:39:37.838Z,73.10
2023-03-10T07:42:04.637Z,73.40
2023-03-10T07:44:31.385Z,73.20
2023-03-10T07:46:58.137Z,73.10
2023-03-10T07:49:24.921Z,72.70
2023-03-10T07:51:54.632Z,72.50
2023-03-10T07:54:21.376Z,72.60
2023-03-10T07:56:50.669Z,72.30
2023-03-10T07:59:17.863Z,73.20
2023-03-10T08:01:44.510Z,72.20
2023-03-10T08:04:12.579Z,72.30
2023-03-10T08:06:39.395Z,72.10
2023-03-10T08:09:06.044Z,71.80
2023-03-10T08:11:32.954Z,71.90
2023-03-10T08:13:59.665Z,72.00
2023-03-10T08:16:26.513Z,71.90
2023-03-10T08:18:54.542Z,71.90
2023-03-10T08:21:21.946Z,71.80
2023-03-10T08:23:49.538Z,71.30
2023-03-10T08:26:17.562Z,71.20
2023-03-10T08:28:44.313Z,71.30
2023-03-10T08:31:15.554Z,71.30
2023-03-10T08:33:42.562Z,71.20
2023-03-10T08:36:13.969Z,71.10
2023-03-10T08:38:41.121Z,71.00
2023-03-10T08:41:14.677Z,70.80
2023-03-10T08:43:41.600Z,70.70
2023-03-10T08:46:09.048Z,70.70
2023-03-10T08:48:36.133Z,70.40
2023-03-10T08:51:02.878Z,70.40
2023-03-10T08:53:29.582Z,70.30
2023-03-10T08:55:56.310Z,70.30
2023-03-10T08:58:24.454Z,70.10
2023-03-10T09:00:52.180Z,70.30
2023-03-10T09:03:20.674Z,70.10
2023-03-10T09:05:47.422Z,70.20
2023-03-10T09:08:14.105Z,70.20
2023-03-10T09:10:42.017Z,71.10
2023-03-10T09:13:14.028Z,70.90
2023-03-10T09:15:41.648Z,70.10
2023-03-10T09:18:09.542Z,70.40
2023-03-10T09:20:37.344Z,70.30
2023-03-10T09:23:04.375Z,70.30
2023-03-10T09:25:31.502Z,69.90
2023-03-10T09:27:58.309Z,69.90
2023-03-10T09:30:25.112Z,70.20
2023-03-10T09:32:51.968Z,70.20
2023-03-10T09:35:19.940Z,70.50
2023-03-10T09:37:46.753Z,70.30
2023-03-10T09:40:20.827Z,70.60
2023-03-10T09:42:49.441Z,70.90
2023-03-10T09:45:34.558Z,70.80
2023-03-10T09:48:20.933Z,71.00
2023-03-10T09:50:49.666Z,70.90
2023-03-10T09:53:25.453Z,70.80
2023-03-10T09:55:52.166Z,70.60
2023-03-10T09:58:37.723Z,70.00
2023-03-10T10:01:04.731Z,70.00
2023-03-10T10:03:46.364Z,69.90
2023-03-10T10:06:24.285Z,69.60
2023-03-10T10:09:07.079Z,69.60
2023-03-10T10:11:36.652Z,69.90
2023-03-10T10:14:33.432Z,69.30
2023-03-10T10:17:15.130Z,69.10
2023-03-10T10:19:42.970Z,69.20
2023-03-10T10:22:23.444Z,68.90
2023-03-10T10:25:08.776Z,69.60
2023-03-10T10:27:36.592Z,69.40
2023-03-10T10:30:28.296Z,69.50
2023-03-10T10:32:56.995Z,69.10
2023-03-10T10:35:25.143Z,68.70
2023-03-10T10:38:25.745Z,69.40
2023-03-10T10:41:07.155Z,68.60
2023-03-10T10:43:53.245Z,68.80
2023-03-10T10:46:26.037Z,68.50
2023-03-10T10:49:25.887Z,68.60
2023-03-10T10:52:03.366Z,68.40
2023-03-10T10:54:39.152Z,68.30
2023-03-10T10:57:17.817Z,70.00
2023-03-10T10:59:44.562Z,71.50
2023-03-10T11:02:37.692Z,69.90
2023-03-10T11:05:43.935Z,69.70
2023-03-10T11:08:18.232Z,70.80
2023-03-10T11:11:11.795Z,69.90
2023-03-10T11:13:53.053Z,69.60
2023-03-10T11:16:51.007Z,70.20
2023-03-10T11:19:22.077Z,69.80
2023-03-10T11:21:54.735Z,69.50
2023-03-10T11:24:35.920Z,69.60
2023-03-10T11:27:10.568Z,69.40
2023-03-10T11:30:10.580Z,69.50
2023-03-10T11:33:21.714Z,69.10
2023-03-10T11:35:53.497Z,69.00
2023-03-10T11:38:37.418Z,69.00
2023-03-10T11:41:12.565Z,68.90
2023-03-10T11:43:54.161Z,69.00
2023-03-10T11:46:46.922Z,68.40
2023-03-10T11:49:16.141Z,66.50
2023-03-10T11:51:51.317Z,67.00
2023-03-10T11:54:41.128Z,67.10
2023-03-10T11:57:20.964Z,66.80
2023-03-10T11:59:52.552Z,66.20
2023-03-10T12:02:27.988Z,65.50
2023-03-10T12:05:02.571Z,63.80
2023-03-10T12:07:38.422Z,61.60
2023-03-10T12:10:14.350Z,59.90
2023-03-10T12:12:45.534Z,59.50
2023-03-10T12:15:22.762Z,60.30
2023-03-10T12:17:52.373Z,57.30
2023-03-10T12:20:20.135Z,57.20
2023-03-10T12:22:53.027Z,55.60
2023-03-10T12:25:37.642Z,55.90
2023-03-10T12:28:16.551Z,54.40
2023-03-10T12:30:56.788Z,55.50
2023-03-10T12:33:32.900Z,54.50
2023-03-10T12:36:27.693Z,54.50
2023-03-10T12:38:57.903Z,55.10
2023-03-10T12:41:27.764Z,53.90
2023-03-10T12:44:01.440Z,52.20
2023-03-10T12:46:54.219Z,53.00
2023-03-10T12:49:29.080Z,53.00
2023-03-10T12:52:28.869Z,51.40
2023-03-10T12:55:06.246Z,51.30
2023-03-10T12:58:15.008Z,51.80
2023-03-10T13:00:45.591Z,51.40
2023-03-10T13:03:18.835Z,51.70
2023-03-10T13:06:04.880Z,51.40
2023-03-10T13:08:47.558Z,51.40
2023-03-10T13:11:37.991Z,51.30
2023-03-10T13:14:18.418Z,51.10
2023-03-10T13:17:00.140Z,50.60
2023-03-10T13:19:28.763Z,50.30
2023-03-10T13:21:55.708Z,49.50
2023-03-10T13:24:31.774Z,49.80
2023-03-10T13:27:34.264Z,49.60
2023-03-10T13:30:22.432Z,49.60
2023-03-10T13:32:59.622Z,49.90
2023-03-10T13:35:36.442Z,50.40
2023-03-10T13:38:24.435Z,51.10
2023-03-10T13:41:02.293Z,51.40
2023-03-10T13:43:36.190Z,51.80
2023-03-10T13:46:04.331Z,51.90
2023-03-10T13:48:31.497Z,52.30
2023-03-10T13:51:16.130Z,52.20
2023-03-10T13:53:42.903Z,52.60
2023-03-10T13:56:18.437Z,53.70
2023-03-10T13:58:45.595Z,53.50
2023-03-10T14:01:36.718Z,53.90
2023-03-10T14:04:06.811Z,54.20
2023-03-10T14:06:33.521Z,54.60
2023-03-10T14:09:16.275Z,55.80
2023-03-10T14:11:44.846Z,55.90
2023-03-10T14:14:11.917Z,56.10
2023-03-10T14:16:56.063Z,55.50
2023-03-10T14:19:41.059Z,56.20
2023-03-10T14:22:37.909Z,56.60
2023-03-10T14:25:18.825Z,56.50
2023-03-10T14:27:59.818Z,56.70
2023-03-10T14:30:30.977Z,56.50
2023-03-10T14:32:58.640Z,57.00
2023-03-10T14:35:25.789Z,56.70
2023-03-10T14:37:52.985Z,56.50
2023-03-10T14:40:21.790Z,56.40
2023-03-10T14:42:51.297Z,56.40
2023-03-10T14:45:27.436Z,56.70
2023-03-10T14:47:56.663Z,56.90
2023-03-10T14:50:23.808Z,57.70
2023-03-10T14:52:51.718Z,57.50
2023-03-10T14:55:18.502Z,57.50
2023-03-10T14:57:46.521Z,57.50
2023-03-10T15:00:15.471Z,58.10
2023-03-10T15:02:42.249Z,57.60
2023-03-10T15:05:17.315Z,57.50
2023-03-10T15:07:44.290Z,57.50
2023-03-10T15:10:12.363Z,57.30
2023-03-10T15:12:40.034Z,57.90
2023-03-10T15:15:10.405Z,58.10
2023-03-10T15:17:37.064Z,57.90
2023-03-10T15:20:08.243Z,57.90
2023-03-10T15:22:34.956Z,57.90
2023-03-10T15:25:01.631Z,58.00
2023-03-10T15:27:28.341Z,58.20
2023-03-10T15:29:55.041Z,59.20
2023-03-10T15:32:22.650Z,59.20
2023-03-10T15:34:49.664Z,58.50
2023-03-10T15:37:17.214Z,58.90
2023-03-10T15:39:43.927Z,59.10
2023-03-10T15:42:10.586Z,60.70
2023-03-10T15:44:37.348Z,59.70
2023-03-10T15:47:04.322Z,59.50
2023-03-10T15:49:31.526Z,59.50
2023-03-10T15:51:58.286Z,59.40
2023-03-10T15:54:24.968Z,59.40
2023-03-10T15:56:52.329Z,59.50
2023-03-10T15:59:19.161Z,59.50
2023-03-10T16:01:45.975Z,59.90
2023-03-10T16:04:12.709Z,59.70
2023-03-10T16:06:39.416Z,59.60
2023-03-10T16:09:08.935Z,60.10
2023-03-10T16:11:36.010Z,60.00
2023-03-10T16:14:02.721Z,59.50
2023-03-10T16:16:29.617Z,59.40
2023-03-10T16:18:56.383Z,59.70
2023-03-10T16:21:23.203Z,59.50
2023-03-10T16:23:51.660Z,59.50
2023-03-10T16:26:22.262Z,59.80
2023-03-10T16:28:52.822Z,59.40
2023-03-10T16:31:21.700Z,59.70
2023-03-10T16:33:50.833Z,59.50
2023-03-10T16:36:20.515Z,59.50
2023-03-10T16:38:48.549Z,60.00
2023-03-10T16:41:15.825Z,62.50
2023-03-10T16:43:42.853Z,62.70
2023-03-10T16:46:10.742Z,62.30
2023-03-10T16:48:42.067Z,61.90
2023-03-10T16:51:19.163Z,61.90
2023-03-10T16:53:46.052Z,62.00
2023-03-10T16:56:12.761Z,61.80
2023-03-10T16:58:39.526Z,62.50
2023-03-10T17:01:06.480Z,62.80
2023-03-10T17:03:39.337Z,62.30
2023-03-10T17:06:08.124Z,62.20
2023-03-10T17:08:34.840Z,62.20
2023-03-10T17:11:01.616Z,62.40
2023-03-10T17:13:28.383Z,62.30
2023-03-10T17:15:55.051Z,62.30
2023-03-10T17:18:22.319Z,62.30
2023-03-10T17:20:49.051Z,62.40
2023-03-10T17:23:15.830Z,63.10
2023-03-10T17:25:43.470Z,63.00
2023-03-10T17:28:10.140Z,62.30
2023-03-10T17:30:40.323Z,62.20
2023-03-10T17:33:07.054Z,63.00
2023-03-10T17:35:37.667Z,63.00
2023-03-10T17:38:04.475Z,62.10
2023-03-10T17:40:31.240Z,62.60
2023-03-10T17:43:03.793Z,62.80
2023-03-10T17:45:39.611Z,63.20
2023-03-10T17:48:06.592Z,62.70
2023-03-10T17:50:33.610Z,62.40
2023-03-10T17:53:00.354Z,62.50
2023-03-10T17:55:27.082Z,62.50
2023-03-10T17:57:53.779Z,62.90
2023-03-10T18:00:21.804Z,63.10
2023-03-10T18:02:48.569Z,63.40
2023-03-10T18:05:15.419Z,63.00
2023-03-10T18:07:42.123Z,62.90
2023-03-10T18:10:11.079Z,65.40
2023-03-10T18:12:37.780Z,65.00
2023-03-10T18:15:04.713Z,63.60
2023-03-10T18:17:31.488Z,63.90
2023-03-10T18:19:58.516Z,63.70
2023-03-10T18:22:25.278Z,63.40
2023-03-10T18:24:52.694Z,63.50
2023-03-10T18:27:20.096Z,64.30
2023-03-10T18:29:47.970Z,63.70
2023-03-10T18:32:14.743Z,63.90
2023-03-10T18:34:41.466Z,64.00
2023-03-10T18:37:08.171Z,63.90
2023-03-10T18:39:34.923Z,66.20
2023-03-10T18:42:01.675Z,67.40
2023-03-10T18:44:28.420Z,70.20
2023-03-10T18:46:55.128Z,70.60
2023-03-10T18:49:23.006Z,69.50
2023-03-10T18:51:50.414Z,72.90
2023-03-10T18:54:17.958Z,75.10
2023-03-10T18:56:44.732Z,73.50
2023-03-10T18:59:11.680Z,77.60
2023-03-10T19:01:38.433Z,73.70
2023-03-10T19:04:05.145Z,74.30
2023-03-10T19:06:33.279Z,76.30
2023-03-10T19:09:01.257Z,76.40
2023-03-10T19:11:35.209Z,73.20
2023-03-10T19:14:03.206Z,72.80
2023-03-10T19:16:30.034Z,72.20
2023-03-10T19:18:56.932Z,71.00
2023-03-10T19:21:24.271Z,70.70
2023-03-10T19:23:51.415Z,71.30
2023-03-10T19:26:18.116Z,70.70
2023-03-10T19:28:44.889Z,70.70
2023-03-10T19:31:12.646Z,71.60
2023-03-10T19:33:39.869Z,74.00
2023-03-10T19:36:10.665Z,75.00
2023-03-10T19:38:38.492Z,76.50
2023-03-10T19:41:05.503Z,73.90
2023-03-10T19:43:32.726Z,73.40
2023-03-10T19:46:03.031Z,72.90
2023-03-10T19:48:29.858Z,73.40
2023-03-10T19:50:56.993Z,72.40
2023-03-10T19:53:25.079Z,72.20
2023-03-10T19:55:54.044Z,72.20
2023-03-10T19:58:21.385Z,71.90
2023-03-10T20:00:48.875Z,71.50
2023-03-10T20:03:16.313Z,71.30
2023-03-10T20:05:43.073Z,72.30
2023-03-10T20:08:09.772Z,72.30
2023-03-10T20:10:36.499Z,71.90
2023-03-10T20:13:04.318Z,71.50
2023-03-10T20:15:31.011Z,71.60
2023-03-10T20:17:57.769Z,71.20
2023-03-10T20:20:24.905Z,71.30
2023-03-10T20:22:52.530Z,71.00
2023-03-10T20:25:20.555Z,71.20
2023-03-10T20:27:47.842Z,71.20
2023-03-10T20:30:16.430Z,70.90
2023-03-10T20:32:43.229Z,71.20
2023-03-10T20:35:09.980Z,70.90
2023-03-10T20:37:38.513Z,71.00
2023-03-10T20:40:06.233Z,71.10
2023-03-10T20:42:33.248Z,70.80
2023-03-10T20:45:00.046Z,70.80
2023-03-10T20:47:29.019Z,71.10
2023-03-10T20:49:55.966Z,70.70
2023-03-10T20:52:23.775Z,70.50
2023-03-10T20:54:53.653Z,70.50
2023-03-10T20:57:20.417Z,70.40
2023-03-10T20:59:47.116Z,70.10
2023-03-10T21:02:15.129Z,70.10
2023-03-10T21:04:42.159Z,71.20
2023-03-10T21:07:08.932Z,71.10
2023-03-10T21:09:35.640Z,71.70
2023-03-10T21:12:02.342Z,71.80
2023-03-10T21:14:29.140Z,71.90
2023-03-10T21:16:59.787Z,71.60
2023-03-10T21:19:27.201Z,71.70
2023-03-10T21:21:54.696Z,71.70
2023-03-10T21:24:21.763Z,71.50
2023-03-10T21:26:48.427Z,71.20
2023-03-10T21:29:15.144Z,71.20
2023-03-10T21:31:41.903Z,71.00
2023-03-10T21:34:08.578Z,71.00
2023-03-10T21:36:35.309Z,71.00
2023-03-10T21:39:02.921Z,71.20
2023-03-10T21:41:29.939Z,71.00
2023-03-10T21:43:57.909Z,71.00
2023-03-10T21:46:26.531Z,70.60
2023-03-10T21:48:53.734Z,70.60
2023-03-10T21:51:22.905Z,70.50
2023-03-10T21:53:50.051Z,70.30
2023-03-10T21:56:22.015Z,70.50
2023-03-10T21:58:48.826Z,70.40
2023-03-10T22:01:16.381Z,70.40
2023-03-10T22:03:43.430Z,70.30
2023-03-10T22:06:10.269Z,70.40
2023-03-10T22:08:37.431Z,70.70
2023-03-10T22:11:06.291Z,70.80
2023-03-10T22:13:34.044Z,71.20
2023-03-10T22:16:01.016Z,71.30
2023-03-10T22:18:28.618Z,71.30
2023-03-10T22:20:56.356Z,71.30
2023-03-10T22:23:23.457Z,71.10
2023-03-10T22:25:50.127Z,71.30
2023-03-10T22:28:16.835Z,71.50
2023-03-10T22:30:43.516Z,71.30
2023-03-10T22:33:10.260Z,71.40
2023-03-10T22:35:37.224Z,72.20
2023-03-10T22:38:04.398Z,71.70
2023-03-10T22:40:31.893Z,71.60
2023-03-10T22:42:59.017Z,71.70
2023-03-10T22:45:34.178Z,71.40
2023-03-10T22:48:02.919Z,71.70
2023-03-10T22:50:38.012Z,71.50
2023-03-10T22:53:06.546Z,72.50
2023-03-10T22:55:36.518Z,71.80
2023-03-10T22:58:04.549Z,71.90
2023-03-10T23:00:31.357Z,72.00
2023-03-10T23:02:59.537Z,72.20
2023-03-10T23:05:28.165Z,72.40
2023-03-10T23:07:55.565Z,72.70
2023-03-10T23:10:24.775Z,72.80
2023-03-10T23:12:51.880Z,72.80
2023-03-10T23:15:27.929Z,72.90
2023-03-10T23:17:55.201Z,73.00
2023-03-10T23:20:27.370Z,73.00
2023-03-10T23:22:55.404Z,73.10
2023-03-10T23:25:27.816Z,73.10
2023-03-10T23:27:54.503Z,73.10
2023-03-10T23:30:21.202Z,73.20
2023-03-10T23:32:48.730Z,73.30
2023-03-10T23:35:17.140Z,73.10
2023-03-10T23:37:43.859Z,73.50
2023-03-10T23:40:13.267Z,73.50
2023-03-10T23:42:40.213Z,73.50
2023-03-10T23:45:08.952Z,73.60
2023-03-10T23:47:35.805Z,73.90
2023-03-10T23:50:02.954Z,74.20
2023-03-10T23:52:30.711Z,74.10
2023-03-10T23:54:57.436Z,74.20
2023-03-10T23:57:24.161Z,74.20
2023-03-10T23:59:50.888Z,74.20
